sensor_id;sensor_type;location;lat;lon;timestamp;temperature;humidity
27128;DHT22;14660;49.008;8.390;2023-01-25T00:01:05;4.50;99.90
27128;DHT22;14660;49.008;8.390;2023-01-25T00:03:32;4.60;99.90
27128;DHT22;14660;49.008;8.390;2023-01-25T00:06:02;4.70;99.90
27128;DHT22;14660;49.008;8.390;2023-01-25T00:08:29;4.70;99.90
27128;DHT22;14660;49.008;8.390;2023-01-25T00:10:58;4.90;99.90
27128;DHT22;14660;49.008;8.390;2023-01-25T00:13:25;4.70;99.90
27128;DHT22;14660;49.008;8.390;2023-01-25T00:15:53;4.50;99.90
27128;DHT22;14660;49.008;8.390;2023-01-25T00:18:18;4.60;99.90
27128;DHT22;14660;49.008;8.390;2023-01-25T00:20:45;4.50;99.90
27128;DHT22;14660;49.008;8.390;2023-01-25T00:23:13;4.40;99.90
27128;DHT22;14660;49.008;8.390;2023-01-25T00:25:40;4.40;99.90
27128;DHT22;14660;49.008;8.390;2023-01-25T00:28:07;4.20;99.90
27128;DHT22;14660;49.008;8.390;2023-01-25T00:30:33;4.30;99.90
27128;DHT22;14660;49.008;8.390;2023-01-25T00:36:40;4.30;99.90
27128;DHT22;14660;49.008;8.390;2023-01-25T00:39:20;4.40;99.90
27128;DHT22;14660;49.008;8.390;2023-01-25T00:41:46;4.50;99.90
27128;DHT22;14660;49.008;8.390;2023-01-25T00:44:13;4.60;99.90
27128;DHT22;14660;49.008;8.390;2023-01-25T00:46:40;4.60;99.90
27128;DHT22;14660;49.008;8.390;2023-01-25T00:49:22;4.70;99.90
27128;DHT22;14660;49.008;8.390;2023-01-25T00:51:51;4.60;99.90
27128;DHT22;14660;49.008;8.390;2023-01-25T00:54:20;4.40;99.90
27128;DHT22;14660;49.008;8.390;2023-01-25T00:56:49;4.60;99.90
27128;DHT22;14660;49.008;8.390;2023-01-25T00:59:18;4.50;99.90
27128;DHT22;14660;49.008;8.390;2023-01-25T01:01:45;4.50;99.90
27128;DHT22;14660;49.008;8.390;2023-01-25T01:04:13;4.50;99.90
27128;DHT22;14660;49.008;8.390;2023-01-25T01:06:41;4.60;99.90
27128;DHT22;14660;49.008;8.390;2023-01-25T01:09:15;4.70;99.90
27128;DHT22;14660;49.008;8.390;2023-01-25T01:11:42;4.50;99.90
27128;DHT22;14660;49.008;8.390;2023-01-25T01:14:13;4.60;99.90
27128;DHT22;14660;49.008;8.390;2023-01-25T01:16:40;4.50;99.90
27128;DHT22;14660;49.008;8.390;2023-01-25T01:19:06;4.50;99.90
27128;DHT22;14660;49.008;8.390;2023-01-25T01:21:33;4.50;99.90
27128;DHT22;14660;49.008;8.390;2023-01-25T01:23:58;4.60;99.90
27128;DHT22;14660;49.008;8.390;2023-01-25T01:26:25;4.70;99.90
27128;DHT22;14660;49.008;8.390;2023-01-25T01:28:52;4.70;99.90
27128;DHT22;14660;49.008;8.390;2023-01-25T01:31:21;4.60;99.90
27128;DHT22;14660;49.008;8.390;2023-01-25T01:33:53;4.60;99.90
27128;DHT22;14660;49.008;8.390;2023-01-25T01:36:22;4.50;99.90
27128;DHT22;14660;49.008;8.390;2023-01-25T01:38:50;4.50;99.90
27128;DHT22;14660;49.008;8.390;2023-01-25T01:41:17;4.40;99.90
27128;DHT22;14660;49.008;8.390;2023-01-25T01:43:45;4.40;99.90
27128;DHT22;14660;49.008;8.390;2023-01-25T01:49:26;4.50;99.90
27128;DHT22;14660;49.008;8.390;2023-01-25T01:52:15;4.60;99.90
27128;DHT22;14660;49.008;8.390;2023-01-25T01:54:46;4.50;99.90
27128;DHT22;14660;49.008;8.390;2023-01-25T01:57:17;4.60;99.90
27128;DHT22;14660;49.008;8.390;2023-01-25T02:02:28;4.60;99.90
27128;DHT22;14660;49.008;8.390;2023-01-25T02:04:59;4.60;99.90
27128;DHT22;14660;49.008;8.390;2023-01-25T02:07:46;4.60;99.90
27128;DHT22;14660;49.008;8.390;2023-01-25T02:10:14;4.50;99.90
27128;DHT22;14660;49.008;8.390;2023-01-25T02:12:46;4.40;99.90
27128;DHT22;14660;49.008;8.390;2023-01-25T02:15:12;4.30;99.90
27128;DHT22;14660;49.008;8.390;2023-01-25T02:17:40;4.50;99.90
27128;DHT22;14660;49.008;8.390;2023-01-25T02:26:17;4.50;99.90
27128;DHT22;14660;49.008;8.390;2023-01-25T02:29:05;4.40;99.90
27128;DHT22;14660;49.008;8.390;2023-01-25T02:31:35;4.50;99.90
27128;DHT22;14660;49.008;8.390;2023-01-25T02:34:03;4.40;99.90
27128;DHT22;14660;49.008;8.390;2023-01-25T02:36:32;4.40;99.90
27128;DHT22;14660;49.008;8.390;2023-01-25T02:39:17;4.50;99.90
27128;DHT22;14660;49.008;8.390;2023-01-25T02:41:45;4.60;99.90
27128;DHT22;14660;49.008;8.390;2023-01-25T02:44:29;4.40;99.90
27128;DHT22;14660;49.008;8.390;2023-01-25T02:46:56;4.60;99.90
27128;DHT22;14660;49.008;8.390;2023-01-25T02:49:23;4.50;99.90
27128;DHT22;14660;49.008;8.390;2023-01-25T02:51:52;4.60;99.90
27128;DHT22;14660;49.008;8.390;2023-01-25T02:54:25;4.50;99.90
27128;DHT22;14660;49.008;8.390;2023-01-25T02:56:53;4.30;99.90
27128;DHT22;14660;49.008;8.390;2023-01-25T02:59:20;4.40;99.90
27128;DHT22;14660;49.008;8.390;2023-01-25T03:01:47;4.30;99.90
27128;DHT22;14660;49.008;8.390;2023-01-25T03:04:15;4.20;99.90
27128;DHT22;14660;49.008;8.390;2023-01-25T03:06:43;4.30;99.90
27128;DHT22;14660;49.008;8.390;2023-01-25T03:09:10;4.50;99.90
27128;DHT22;14660;49.008;8.390;2023-01-25T03:11:37;4.40;99.90
27128;DHT22;14660;49.008;8.390;2023-01-25T03:14:04;4.40;99.90
27128;DHT22;14660;49.008;8.390;2023-01-25T03:16:32;4.40;99.90
27128;DHT22;14660;49.008;8.390;2023-01-25T03:18:58;4.60;99.90
27128;DHT22;14660;49.008;8.390;2023-01-25T03:21:25;4.40;99.90
27128;DHT22;14660;49.008;8.390;2023-01-25T03:24:00;4.30;99.90
27128;DHT22;14660;49.008;8.390;2023-01-25T03:26:27;4.30;99.90
27128;DHT22;14660;49.008;8.390;2023-01-25T03:28:53;4.30;99.90
27128;DHT22;14660;49.008;8.390;2023-01-25T03:34:46;4.20;99.90
27128;DHT22;14660;49.008;8.390;2023-01-25T03:37:14;4.20;99.90
27128;DHT22;14660;49.008;8.390;2023-01-25T03:39:41;4.30;99.90
27128;DHT22;14660;49.008;8.390;2023-01-25T03:42:07;4.50;99.90
27128;DHT22;14660;49.008;8.390;2023-01-25T03:44:34;4.40;99.90
27128;DHT22;14660;49.008;8.390;2023-01-25T03:47:01;4.40;99.90
27128;DHT22;14660;49.008;8.390;2023-01-25T03:49:29;4.30;99.90
27128;DHT22;14660;49.008;8.390;2023-01-25T03:51:56;4.40;99.90
27128;DHT22;14660;49.008;8.390;2023-01-25T03:54:23;4.40;99.90
27128;DHT22;14660;49.008;8.390;2023-01-25T03:56:51;4.40;99.90
27128;DHT22;14660;49.008;8.390;2023-01-25T03:59:18;4.50;99.90
27128;DHT22;14660;49.008;8.390;2023-01-25T04:01:44;4.40;99.90
27128;DHT22;14660;49.008;8.390;2023-01-25T04:04:11;4.40;99.90
27128;DHT22;14660;49.008;8.390;2023-01-25T04:06:38;4.30;99.90
27128;DHT22;14660;49.008;8.390;2023-01-25T04:09:05;4.40;99.90
27128;DHT22;14660;49.008;8.390;2023-01-25T04:11:36;4.60;99.90
27128;DHT22;14660;49.008;8.390;2023-01-25T04:14:02;4.60;99.90
27128;DHT22;14660;49.008;8.390;2023-01-25T04:16:29;4.40;99.90
27128;DHT22;14660;49.008;8.390;2023-01-25T04:18:58;4.40;99.90
27128;DHT22;14660;49.008;8.390;2023-01-25T04:21:25;4.50;99.90
27128;DHT22;14660;49.008;8.390;2023-01-25T04:23:52;4.40;99.90
27128;DHT22;14660;49.008;8.390;2023-01-25T04:26:18;4.20;99.90
27128;DHT22;14660;49.008;8.390;2023-01-25T04:28:44;4.20;99.90
27128;DHT22;14660;49.008;8.390;2023-01-25T04:31:11;4.50;99.90
27128;DHT22;14660;49.008;8.390;2023-01-25T04:33:37;4.50;99.90
27128;DHT22;14660;49.008;8.390;2023-01-25T04:36:04;4.40;99.90
27128;DHT22;14660;49.008;8.390;2023-01-25T04:38:33;4.50;99.90
27128;DHT22;14660;49.008;8.390;2023-01-25T04:41:04;4.40;99.90
27128;DHT22;14660;49.008;8.390;2023-01-25T04:43:31;4.30;99.90
27128;DHT22;14660;49.008;8.390;2023-01-25T04:46:00;4.30;99.90
27128;DHT22;14660;49.008;8.390;2023-01-25T04:48:30;4.20;99.90
27128;DHT22;14660;49.008;8.390;2023-01-25T04:50:57;4.20;99.90
27128;DHT22;14660;49.008;8.390;2023-01-25T04:53:24;4.10;99.90
27128;DHT22;14660;49.008;8.390;2023-01-25T04:55:51;4.20;99.90
27128;DHT22;14660;49.008;8.390;2023-01-25T04:58:18;4.20;99.90
27128;DHT22;14660;49.008;8.390;2023-01-25T05:00:44;4.20;99.90
27128;DHT22;14660;49.008;8.390;2023-01-25T05:03:10;4.30;99.90
27128;DHT22;14660;49.008;8.390;2023-01-25T05:05:37;4.40;99.90
27128;DHT22;14660;49.008;8.390;2023-01-25T05:08:03;4.20;99.90
27128;DHT22;14660;49.008;8.390;2023-01-25T05:10:30;4.10;99.90
27128;DHT22;14660;49.008;8.390;2023-01-25T05:12:58;4.00;99.90
27128;DHT22;14660;49.008;8.390;2023-01-25T05:15:25;4.10;99.90
27128;DHT22;14660;49.008;8.390;2023-01-25T05:17:52;4.00;99.90
27128;DHT22;14660;49.008;8.390;2023-01-25T05:20:19;4.00;99.90
27128;DHT22;14660;49.008;8.390;2023-01-25T05:22:45;4.00;99.90
27128;DHT22;14660;49.008;8.390;2023-01-25T05:25:11;4.20;99.90
27128;DHT22;14660;49.008;8.390;2023-01-25T05:27:58;3.90;99.90
27128;DHT22;14660;49.008;8.390;2023-01-25T05:30:25;3.80;99.90
27128;DHT22;14660;49.008;8.390;2023-01-25T05:32:53;4.00;99.90
27128;DHT22;14660;49.008;8.390;2023-01-25T05:35:21;3.80;99.90
27128;DHT22;14660;49.008;8.390;2023-01-25T05:37:48;3.80;99.90
27128;DHT22;14660;49.008;8.390;2023-01-25T05:40:15;3.80;99.90
27128;DHT22;14660;49.008;8.390;2023-01-25T05:42:41;3.90;99.90
27128;DHT22;14660;49.008;8.390;2023-01-25T05:45:10;3.90;99.90
27128;DHT22;14660;49.008;8.390;2023-01-25T05:47:37;3.90;99.90
27128;DHT22;14660;49.008;8.390;2023-01-25T05:50:04;3.90;99.90
27128;DHT22;14660;49.008;8.390;2023-01-25T05:52:31;3.90;99.90
27128;DHT22;14660;49.008;8.390;2023-01-25T05:54:58;3.60;99.90
27128;DHT22;14660;49.008;8.390;2023-01-25T05:57:25;3.60;99.90
27128;DHT22;14660;49.008;8.390;2023-01-25T05:59:52;3.50;99.90
27128;DHT22;14660;49.008;8.390;2023-01-25T06:02:18;3.60;99.90
27128;DHT22;14660;49.008;8.390;2023-01-25T06:04:46;3.70;99.90
27128;DHT22;14660;49.008;8.390;2023-01-25T06:07:12;3.70;99.90
27128;DHT22;14660;49.008;8.390;2023-01-25T06:09:38;3.60;99.90
27128;DHT22;14660;49.008;8.390;2023-01-25T06:12:05;3.70;99.90
27128;DHT22;14660;49.008;8.390;2023-01-25T06:14:32;3.60;99.90
27128;DHT22;14660;49.008;8.390;2023-01-25T06:17:00;3.60;99.90
27128;DHT22;14660;49.008;8.390;2023-01-25T06:19:27;3.80;99.90
27128;DHT22;14660;49.008;8.390;2023-01-25T06:21:54;3.60;99.90
27128;DHT22;14660;49.008;8.390;2023-01-25T06:24:21;3.50;99.90
27128;DHT22;14660;49.008;8.390;2023-01-25T06:26:49;3.50;99.90
27128;DHT22;14660;49.008;8.390;2023-01-25T06:29:16;3.40;99.90
27128;DHT22;14660;49.008;8.390;2023-01-25T06:31:42;3.40;99.90
27128;DHT22;14660;49.008;8.390;2023-01-25T06:34:12;3.40;99.90
27128;DHT22;14660;49.008;8.390;2023-01-25T06:36:40;3.50;99.90
27128;DHT22;14660;49.008;8.390;2023-01-25T06:39:06;3.50;99.90
27128;DHT22;14660;49.008;8.390;2023-01-25T06:41:33;3.50;99.90
27128;DHT22;14660;49.008;8.390;2023-01-25T06:44:01;3.50;99.90
27128;DHT22;14660;49.008;8.390;2023-01-25T06:46:31;3.50;99.90
27128;DHT22;14660;49.008;8.390;2023-01-25T06:48:59;3.50;99.90
27128;DHT22;14660;49.008;8.390;2023-01-25T06:51:26;3.60;99.90
27128;DHT22;14660;49.008;8.390;2023-01-25T06:53:52;3.60;99.90
27128;DHT22;14660;49.008;8.390;2023-01-25T06:56:21;3.50;99.90
27128;DHT22;14660;49.008;8.390;2023-01-25T06:58:50;3.50;99.90
27128;DHT22;14660;49.008;8.390;2023-01-25T07:01:36;3.50;99.90
27128;DHT22;14660;49.008;8.390;2023-01-25T07:04:03;3.60;99.90
27128;DHT22;14660;49.008;8.390;2023-01-25T07:06:31;3.60;99.90
27128;DHT22;14660;49.008;8.390;2023-01-25T07:09:04;3.60;99.90
27128;DHT22;14660;49.008;8.390;2023-01-25T07:11:32;3.60;99.90
27128;DHT22;14660;49.008;8.390;2023-01-25T07:14:02;3.70;99.90
27128;DHT22;14660;49.008;8.390;2023-01-25T07:16:29;3.50;99.90
27128;DHT22;14660;49.008;8.390;2023-01-25T07:19:03;3.50;99.90
27128;DHT22;14660;49.008;8.390;2023-01-25T07:21:31;3.50;99.90
27128;DHT22;14660;49.008;8.390;2023-01-25T07:24:03;3.70;99.90
27128;DHT22;14660;49.008;8.390;2023-01-25T07:26:30;3.70;99.90
27128;DHT22;14660;49.008;8.390;2023-01-25T07:28:58;3.70;99.90
27128;DHT22;14660;49.008;8.390;2023-01-25T07:31:25;3.60;99.90
27128;DHT22;14660;49.008;8.390;2023-01-25T07:33:54;3.50;99.90
27128;DHT22;14660;49.008;8.390;2023-01-25T07:36:23;3.50;99.90
27128;DHT22;14660;49.008;8.390;2023-01-25T07:38:54;3.50;99.90
27128;DHT22;14660;49.008;8.390;2023-01-25T07:41:25;3.50;99.90
27128;DHT22;14660;49.008;8.390;2023-01-25T07:43:51;3.50;99.90
27128;DHT22;14660;49.008;8.390;2023-01-25T07:46:19;3.40;99.90
27128;DHT22;14660;49.008;8.390;2023-01-25T07:48:47;3.60;99.90
27128;DHT22;14660;49.008;8.390;2023-01-25T07:51:15;3.50;99.90
27128;DHT22;14660;49.008;8.390;2023-01-25T07:54:02;3.50;99.90
27128;DHT22;14660;49.008;8.390;2023-01-25T07:56:33;3.60;99.90
27128;DHT22;14660;49.008;8.390;2023-01-25T07:59:00;3.50;99.90
27128;DHT22;14660;49.008;8.390;2023-01-25T08:01:33;3.40;99.90
27128;DHT22;14660;49.008;8.390;2023-01-25T08:04:02;3.40;99.90
27128;DHT22;14660;49.008;8.390;2023-01-25T08:06:31;3.40;99.90
27128;DHT22;14660;49.008;8.390;2023-01-25T08:09:11;3.40;99.90
27128;DHT22;14660;49.008;8.390;2023-01-25T08:11:40;3.50;99.90
27128;DHT22;14660;49.008;8.390;2023-01-25T08:14:07;3.70;99.90
27128;DHT22;14660;49.008;8.390;2023-01-25T08:16:34;3.50;99.90
27128;DHT22;14660;49.008;8.390;2023-01-25T08:19:02;3.70;99.90
27128;DHT22;14660;49.008;8.390;2023-01-25T08:21:32;3.60;99.90
27128;DHT22;14660;49.008;8.390;2023-01-25T08:24:04;3.70;99.90
27128;DHT22;14660;49.008;8.390;2023-01-25T08:26:36;3.80;99.90
27128;DHT22;14660;49.008;8.390;2023-01-25T08:29:04;3.80;99.90
27128;DHT22;14660;49.008;8.390;2023-01-25T08:31:33;3.70;99.90
27128;DHT22;14660;49.008;8.390;2023-01-25T08:34:01;3.70;99.90
27128;DHT22;14660;49.008;8.390;2023-01-25T08:36:27;3.70;99.90
27128;DHT22;14660;49.008;8.390;2023-01-25T08:39:00;3.70;99.90
27128;DHT22;14660;49.008;8.390;2023-01-25T08:41:37;3.80;99.90
27128;DHT22;14660;49.008;8.390;2023-01-25T08:44:07;3.60;99.90
27128;DHT22;14660;49.008;8.390;2023-01-25T08:46:35;3.80;99.90
27128;DHT22;14660;49.008;8.390;2023-01-25T08:49:05;3.80;99.90
27128;DHT22;14660;49.008;8.390;2023-01-25T08:51:33;3.70;99.90
27128;DHT22;14660;49.008;8.390;2023-01-25T08:54:15;3.80;99.90
27128;DHT22;14660;49.008;8.390;2023-01-25T08:56:44;3.80;99.90
27128;DHT22;14660;49.008;8.390;2023-01-25T08:59:12;4.00;99.90
27128;DHT22;14660;49.008;8.390;2023-01-25T09:01:39;3.90;99.90
27128;DHT22;14660;49.008;8.390;2023-01-25T09:04:06;4.00;99.90
27128;DHT22;14660;49.008;8.390;2023-01-25T09:06:33;3.90;99.90
27128;DHT22;14660;49.008;8.390;2023-01-25T09:09:00;3.80;99.90
27128;DHT22;14660;49.008;8.390;2023-01-25T09:11:27;3.80;99.90
27128;DHT22;14660;49.008;8.390;2023-01-25T09:13:54;3.80;99.90
27128;DHT22;14660;49.008;8.390;2023-01-25T09:16:22;4.00;99.90
27128;DHT22;14660;49.008;8.390;2023-01-25T09:18:57;4.10;99.90
27128;DHT22;14660;49.008;8.390;2023-01-25T09:21:25;4.10;99.90
27128;DHT22;14660;49.008;8.390;2023-01-25T09:23:53;3.90;99.90
27128;DHT22;14660;49.008;8.390;2023-01-25T09:26:20;4.00;99.90
27128;DHT22;14660;49.008;8.390;2023-01-25T09:28:48;4.00;99.90
27128;DHT22;14660;49.008;8.390;2023-01-25T09:31:15;4.00;99.90
27128;DHT22;14660;49.008;8.390;2023-01-25T09:33:43;3.90;99.90
27128;DHT22;14660;49.008;8.390;2023-01-25T09:36:10;4.00;99.90
27128;DHT22;14660;49.008;8.390;2023-01-25T09:38:37;4.10;99.90
27128;DHT22;14660;49.008;8.390;2023-01-25T09:47:15;4.20;99.90
27128;DHT22;14660;49.008;8.390;2023-01-25T09:55:59;4.10;99.90
27128;DHT22;14660;49.008;8.390;2023-01-25T09:58:36;4.10;99.90
27128;DHT22;14660;49.008;8.390;2023-01-25T10:04:01;4.20;99.90
27128;DHT22;14660;49.008;8.390;2023-01-25T10:06:40;4.20;99.90
27128;DHT22;14660;49.008;8.390;2023-01-25T10:12:34;4.10;99.90
27128;DHT22;14660;49.008;8.390;2023-01-25T10:15:07;4.20;99.90
27128;DHT22;14660;49.008;8.390;2023-01-25T10:17:39;4.00;99.90
27128;DHT22;14660;49.008;8.390;2023-01-25T10:26:24;4.00;99.90
27128;DHT22;14660;49.008;8.390;2023-01-25T10:29:10;4.10;99.90
27128;DHT22;14660;49.008;8.390;2023-01-25T10:34:47;4.20;99.90
27128;DHT22;14660;49.008;8.390;2023-01-25T10:37:18;4.20;99.90
27128;DHT22;14660;49.008;8.390;2023-01-25T10:40:22;4.00;99.90
27128;DHT22;14660;49.008;8.390;2023-01-25T10:43:02;4.00;99.90
27128;DHT22;14660;49.008;8.390;2023-01-25T10:45:31;4.00;99.90
27128;DHT22;14660;49.008;8.390;2023-01-25T10:48:01;4.20;99.90
27128;DHT22;14660;49.008;8.390;2023-01-25T10:50:49;4.10;99.90
27128;DHT22;14660;49.008;8.390;2023-01-25T10:56:34;4.10;99.90
27128;DHT22;14660;49.008;8.390;2023-01-25T10:59:24;4.20;99.90
27128;DHT22;14660;49.008;8.390;2023-01-25T11:01:52;4.20;99.90
27128;DHT22;14660;49.008;8.390;2023-01-25T11:04:38;4.30;99.90
27128;DHT22;14660;49.008;8.390;2023-01-25T11:07:10;4.40;99.90
27128;DHT22;14660;49.008;8.390;2023-01-25T11:09:52;4.40;99.90
27128;DHT22;14660;49.008;8.390;2023-01-25T11:12:19;4.30;99.90
27128;DHT22;14660;49.008;8.390;2023-01-25T11:14:48;4.40;99.90
27128;DHT22;14660;49.008;8.390;2023-01-25T11:17:36;4.30;99.90
27128;DHT22;14660;49.008;8.390;2023-01-25T11:20:18;4.40;99.90
27128;DHT22;14660;49.008;8.390;2023-01-25T11:22:56;4.30;99.90
27128;DHT22;14660;49.008;8.390;2023-01-25T11:25:32;4.20;99.90
27128;DHT22;14660;49.008;8.390;2023-01-25T11:28:26;4.20;99.90
27128;DHT22;14660;49.008;8.390;2023-01-25T11:30:52;4.10;99.90
27128;DHT22;14660;49.008;8.390;2023-01-25T11:33:20;4.00;99.90
27128;DHT22;14660;49.008;8.390;2023-01-25T11:39:33;4.00;99.90
27128;DHT22;14660;49.008;8.390;2023-01-25T11:51:45;4.00;99.90
27128;DHT22;14660;49.008;8.390;2023-01-25T12:36:43;4.20;99.90
27128;DHT22;14660;49.008;8.390;2023-01-25T12:39:33;4.20;99.90
27128;DHT22;14660;49.008;8.390;2023-01-25T12:45:21;4.30;99.90
27128;DHT22;14660;49.008;8.390;2023-01-25T12:48:39;4.30;99.90
27128;DHT22;14660;49.008;8.390;2023-01-25T12:50:50;4.30;99.90
27128;DHT22;14660;49.008;8.390;2023-01-25T12:53:41;4.70;99.90
27128;DHT22;14660;49.008;8.390;2023-01-25T13:05:34;4.60;99.90
27128;DHT22;14660;49.008;8.390;2023-01-25T13:11:26;4.70;99.90
27128;DHT22;14660;49.008;8.390;2023-01-25T13:17:30;4.50;99.90
27128;DHT22;14660;49.008;8.390;2023-01-25T13:19:59;4.50;99.90
27128;DHT22;14660;49.008;8.390;2023-01-25T13:25:32;4.50;99.90
27128;DHT22;14660;49.008;8.390;2023-01-25T13:28:38;4.50;99.90
27128;DHT22;14660;49.008;8.390;2023-01-25T13:31:05;4.40;99.90
27128;DHT22;14660;49.008;8.390;2023-01-25T13:33:35;4.30;99.90
27128;DHT22;14660;49.008;8.390;2023-01-25T13:37:04;4.40;99.90
27128;DHT22;14660;49.008;8.390;2023-01-25T13:47:27;4.40;99.90
27128;DHT22;14660;49.008;8.390;2023-01-25T13:52:58;4.40;99.90
27128;DHT22;14660;49.008;8.390;2023-01-25T13:55:25;4.50;99.90
27128;DHT22;14660;49.008;8.390;2023-01-25T13:58:08;4.60;99.90
27128;DHT22;14660;49.008;8.390;2023-01-25T14:00:36;4.50;99.90
27128;DHT22;14660;49.008;8.390;2023-01-25T14:03:05;4.40;99.90
27128;DHT22;14660;49.008;8.390;2023-01-25T14:05:32;4.10;99.90
27128;DHT22;14660;49.008;8.390;2023-01-25T14:08:00;4.00;99.90
27128;DHT22;14660;49.008;8.390;2023-01-25T14:10:27;4.10;99.90
27128;DHT22;14660;49.008;8.390;2023-01-25T14:12:59;4.10;99.90
27128;DHT22;14660;49.008;8.390;2023-01-25T14:15:55;4.20;99.90
27128;DHT22;14660;49.008;8.390;2023-01-25T14:18:26;4.10;99.90
27128;DHT22;14660;49.008;8.390;2023-01-25T14:23:38;4.30;99.90
27128;DHT22;14660;49.008;8.390;2023-01-25T14:26:16;4.30;99.90
27128;DHT22;14660;49.008;8.390;2023-01-25T14:28:53;4.20;99.90
27128;DHT22;14660;49.008;8.390;2023-01-25T14:31:27;4.40;99.90
27128;DHT22;14660;49.008;8.390;2023-01-25T14:33:56;4.40;99.90
27128;DHT22;14660;49.008;8.390;2023-01-25T14:36:30;4.30;99.90
27128;DHT22;14660;49.008;8.390;2023-01-25T14:38:59;4.40;99.90
27128;DHT22;14660;49.008;8.390;2023-01-25T14:41:44;4.40;99.90
27128;DHT22;14660;49.008;8.390;2023-01-25T14:44:14;4.30;99.90
27128;DHT22;14660;49.008;8.390;2023-01-25T14:46:43;4.30;99.90
27128;DHT22;14660;49.008;8.390;2023-01-25T14:49:28;4.40;99.90
27128;DHT22;14660;49.008;8.390;2023-01-25T14:52:32;4.40;99.90
27128;DHT22;14660;49.008;8.390;2023-01-25T14:54:53;4.30;99.90
27128;DHT22;14660;49.008;8.390;2023-01-25T14:57:40;4.30;99.90
27128;DHT22;14660;49.008;8.390;2023-01-25T15:00:27;4.20;99.90
27128;DHT22;14660;49.008;8.390;2023-01-25T15:03:05;4.10;99.90
27128;DHT22;14660;49.008;8.390;2023-01-25T15:05:34;4.30;99.90
27128;DHT22;14660;49.008;8.390;2023-01-25T15:11:25;4.20;99.90
27128;DHT22;14660;49.008;8.390;2023-01-25T15:14:17;4.20;99.90
27128;DHT22;14660;49.008;8.390;2023-01-25T15:16:44;3.90;99.90
27128;DHT22;14660;49.008;8.390;2023-01-25T15:19:24;4.00;99.90
27128;DHT22;14660;49.008;8.390;2023-01-25T15:21:54;4.00;99.90
27128;DHT22;14660;49.008;8.390;2023-01-25T15:24:25;4.00;99.90
27128;DHT22;14660;49.008;8.390;2023-01-25T15:26:53;4.30;99.90
27128;DHT22;14660;49.008;8.390;2023-01-25T15:29:24;4.30;99.90
27128;DHT22;14660;49.008;8.390;2023-01-25T15:31:57;4.30;99.90
27128;DHT22;14660;49.008;8.390;2023-01-25T15:34:26;4.00;99.90
27128;DHT22;14660;49.008;8.390;2023-01-25T15:36:54;4.00;99.90
27128;DHT22;14660;49.008;8.390;2023-01-25T15:39:23;4.20;99.90
27128;DHT22;14660;49.008;8.390;2023-01-25T15:41:49;4.40;99.90
27128;DHT22;14660;49.008;8.390;2023-01-25T15:44:16;4.10;99.90
27128;DHT22;14660;49.008;8.390;2023-01-25T15:46:49;4.20;99.90
27128;DHT22;14660;49.008;8.390;2023-01-25T15:49:29;4.20;99.90
27128;DHT22;14660;49.008;8.390;2023-01-25T15:51:57;4.20;99.90
27128;DHT22;14660;49.008;8.390;2023-01-25T15:54:24;4.00;99.90
27128;DHT22;14660;49.008;8.390;2023-01-25T15:56:55;4.10;99.90
27128;DHT22;14660;49.008;8.390;2023-01-25T15:59:24;4.30;99.90
27128;DHT22;14660;49.008;8.390;2023-01-25T16:01:51;4.10;99.90
27128;DHT22;14660;49.008;8.390;2023-01-25T16:04:18;4.20;99.90
27128;DHT22;14660;49.008;8.390;2023-01-25T16:07:03;4.00;99.90
27128;DHT22;14660;49.008;8.390;2023-01-25T16:09:30;4.10;99.90
27128;DHT22;14660;49.008;8.390;2023-01-25T16:12:00;4.10;99.90
27128;DHT22;14660;49.008;8.390;2023-01-25T16:14:29;4.10;99.90
27128;DHT22;14660;49.008;8.390;2023-01-25T16:16:59;4.00;99.90
27128;DHT22;14660;49.008;8.390;2023-01-25T16:19:27;3.80;99.90
27128;DHT22;14660;49.008;8.390;2023-01-25T16:21:56;3.90;99.90
27128;DHT22;14660;49.008;8.390;2023-01-25T16:24:23;4.00;99.90
27128;DHT22;14660;49.008;8.390;2023-01-25T16:26:54;4.10;99.90
27128;DHT22;14660;49.008;8.390;2023-01-25T16:29:22;4.00;99.90
27128;DHT22;14660;49.008;8.390;2023-01-25T16:31:49;3.80;99.90
27128;DHT22;14660;49.008;8.390;2023-01-25T16:34:20;3.90;99.90
27128;DHT22;14660;49.008;8.390;2023-01-25T16:36:47;4.10;99.90
27128;DHT22;14660;49.008;8.390;2023-01-25T16:39:24;4.10;99.90
27128;DHT22;14660;49.008;8.390;2023-01-25T16:41:56;4.20;99.90
27128;DHT22;14660;49.008;8.390;2023-01-25T16:44:23;4.20;99.90
27128;DHT22;14660;49.008;8.390;2023-01-25T16:46:50;4.30;99.90
27128;DHT22;14660;49.008;8.390;2023-01-25T16:49:19;4.20;99.90
27128;DHT22;14660;49.008;8.390;2023-01-25T16:51:46;4.20;99.90
27128;DHT22;14660;49.008;8.390;2023-01-25T16:54:15;4.10;99.90
27128;DHT22;14660;49.008;8.390;2023-01-25T16:56:42;4.00;99.90
27128;DHT22;14660;49.008;8.390;2023-01-25T16:59:10;4.10;99.90
27128;DHT22;14660;49.008;8.390;2023-01-25T17:01:37;4.10;99.90
27128;DHT22;14660;49.008;8.390;2023-01-25T17:04:07;4.20;99.90
27128;DHT22;14660;49.008;8.390;2023-01-25T17:06:36;4.10;99.90
27128;DHT22;14660;49.008;8.390;2023-01-25T17:09:06;3.90;99.90
27128;DHT22;14660;49.008;8.390;2023-01-25T17:11:36;3.90;99.90
27128;DHT22;14660;49.008;8.390;2023-01-25T17:14:04;4.00;99.90
27128;DHT22;14660;49.008;8.390;2023-01-25T17:16:32;4.20;99.90
27128;DHT22;14660;49.008;8.390;2023-01-25T17:19:06;4.10;99.90
27128;DHT22;14660;49.008;8.390;2023-01-25T17:21:33;4.10;99.90
27128;DHT22;14660;49.008;8.390;2023-01-25T17:24:00;4.30;99.90
27128;DHT22;14660;49.008;8.390;2023-01-25T17:26:28;4.20;99.90
27128;DHT22;14660;49.008;8.390;2023-01-25T17:28:57;4.00;99.90
27128;DHT22;14660;49.008;8.390;2023-01-25T17:31:34;4.00;99.90
27128;DHT22;14660;49.008;8.390;2023-01-25T17:34:01;4.20;99.90
27128;DHT22;14660;49.008;8.390;2023-01-25T17:36:30;4.10;99.90
27128;DHT22;14660;49.008;8.390;2023-01-25T17:39:04;4.10;99.90
27128;DHT22;14660;49.008;8.390;2023-01-25T17:41:31;4.20;99.90
27128;DHT22;14660;49.008;8.390;2023-01-25T17:43:58;4.10;99.90
27128;DHT22;14660;49.008;8.390;2023-01-25T17:46:28;4.20;99.90
27128;DHT22;14660;49.008;8.390;2023-01-25T17:48:57;4.20;99.90
27128;DHT22;14660;49.008;8.390;2023-01-25T17:51:25;4.30;99.90
27128;DHT22;14660;49.008;8.390;2023-01-25T17:53:52;4.10;99.90
27128;DHT22;14660;49.008;8.390;2023-01-25T17:56:19;4.20;99.90
27128;DHT22;14660;49.008;8.390;2023-01-25T17:58:48;4.10;99.90
27128;DHT22;14660;49.008;8.390;2023-01-25T18:01:33;4.10;99.90
27128;DHT22;14660;49.008;8.390;2023-01-25T18:04:01;3.90;99.90
27128;DHT22;14660;49.008;8.390;2023-01-25T18:06:30;4.20;99.90
27128;DHT22;14660;49.008;8.390;2023-01-25T18:09:00;4.30;99.90
27128;DHT22;14660;49.008;8.390;2023-01-25T18:11:30;4.20;99.90
27128;DHT22;14660;49.008;8.390;2023-01-25T18:14:03;4.10;99.90
27128;DHT22;14660;49.008;8.390;2023-01-25T18:16:35;3.90;99.90
27128;DHT22;14660;49.008;8.390;2023-01-25T18:19:03;3.90;99.90
27128;DHT22;14660;49.008;8.390;2023-01-25T18:21:31;3.90;99.90
27128;DHT22;14660;49.008;8.390;2023-01-25T18:24:24;4.10;99.90
27128;DHT22;14660;49.008;8.390;2023-01-25T18:26:50;4.10;99.90
27128;DHT22;14660;49.008;8.390;2023-01-25T18:29:58;4.10;99.90
27128;DHT22;14660;49.008;8.390;2023-01-25T18:32:27;4.00;99.90